sensor_id;sensor_type;location;lat;lon;timestamp;pressure;altitude;pressure_sealevel;temperature;humidity
58739;BME280;44512;53.046;18.604;2022-12-05T00:00:34;102477.69;;;2.98;72.12
58739;BME280;44512;53.046;18.604;2022-12-05T00:11:03;102469.98;;;2.93;72.07
58739;BME280;44512;53.046;18.604;2022-12-05T00:21:34;102473.18;;;2.98;71.95
58739;BME280;44512;53.046;18.604;2022-12-05T00:32:00;102481.32;;;2.97;71.89
58739;BME280;44512;53.046;18.604;2022-12-05T00:42:28;102470.22;;;2.90;71.91
58739;BME280;44512;53.046;18.604;2022-12-05T00:52:57;102478.00;;;2.93;71.84
58739;BME280;44512;53.046;18.604;2022-12-05T01:03:25;102474.70;;;2.90;71.88
58739;BME280;44512;53.046;18.604;2022-12-05T01:13:55;102468.08;;;2.95;71.97
58739;BME280;44512;53.046;18.604;2022-12-05T01:24:24;102447.52;;;2.96;71.69
58739;BME280;44512;53.046;18.604;2022-12-05T01:34:51;102437.23;;;3.02;71.55
58739;BME280;44512;53.046;18.604;2022-12-05T01:45:46;102417.54;;;3.03;71.51
58739;BME280;44512;53.046;18.604;2022-12-05T01:55:49;102421.58;;;3.09;71.31
58739;BME280;44512;53.046;18.604;2022-12-05T02:06:16;102403.84;;;3.08;71.06
58739;BME280;44512;53.046;18.604;2022-12-05T02:17:05;102403.19;;;3.04;70.92
58739;BME280;44512;53.046;18.604;2022-12-05T02:27:32;102403.84;;;3.08;70.99
58739;BME280;44512;53.046;18.604;2022-12-05T02:48:13;102415.63;;;3.05;70.83
58739;BME280;44512;53.046;18.604;2022-12-05T02:58:44;102413.55;;;3.09;70.79
58739;BME280;44512;53.046;18.604;2022-12-05T03:09:15;102406.18;;;3.12;70.58
58739;BME280;44512;53.046;18.604;2022-12-05T03:30:10;102398.53;;;2.95;70.48
58739;BME280;44512;53.046;18.604;2022-12-05T03:51:03;102392.65;;;2.77;70.85
58739;BME280;44512;53.046;18.604;2022-12-05T04:01:31;102399.82;;;2.90;70.72
58739;BME280;44512;53.046;18.604;2022-12-05T04:12:01;102403.87;;;2.95;70.45
58739;BME280;44512;53.046;18.604;2022-12-05T04:22:27;102415.22;;;2.86;69.92
58739;BME280;44512;53.046;18.604;2022-12-05T04:33:04;102406.88;;;2.78;70.28
58739;BME280;44512;53.046;18.604;2022-12-05T04:43:24;102406.66;;;2.81;70.25
58739;BME280;44512;53.046;18.604;2022-12-05T04:53:56;102400.88;;;2.87;70.29
58739;BME280;44512;53.046;18.604;2022-12-05T05:04:27;102400.02;;;2.86;70.18
58739;BME280;44512;53.046;18.604;2022-12-05T05:14:48;102369.63;;;2.87;69.78
58739;BME280;44512;53.046;18.604;2022-12-05T05:25:17;102390.39;;;2.84;70.14
58739;BME280;44512;53.046;18.604;2022-12-05T05:35:45;102386.98;;;2.82;70.12
58739;BME280;44512;53.046;18.604;2022-12-05T05:46:16;102386.01;;;2.83;70.00
58739;BME280;44512;53.046;18.604;2022-12-05T05:56:42;102376.93;;;2.73;70.00
58739;BME280;44512;53.046;18.604;2022-12-05T06:07:10;102390.01;;;2.65;70.14
58739;BME280;44512;53.046;18.604;2022-12-05T06:17:39;102399.41;;;2.70;70.37
58739;BME280;44512;53.046;18.604;2022-12-05T06:28:07;102401.32;;;2.81;70.18
58739;BME280;44512;53.046;18.604;2022-12-05T06:38:36;102403.47;;;2.76;70.10
58739;BME280;44512;53.046;18.604;2022-12-05T06:49:04;102400.80;;;2.76;70.37
58739;BME280;44512;53.046;18.604;2022-12-05T06:59:32;102402.05;;;2.83;70.29
58739;BME280;44512;53.046;18.604;2022-12-05T07:10:02;102386.53;;;2.88;70.25
58739;BME280;44512;53.046;18.604;2022-12-05T07:20:29;102395.09;;;2.93;70.11
58739;BME280;44512;53.046;18.604;2022-12-05T07:31:08;102380.45;;;2.86;70.03
58739;BME280;44512;53.046;18.604;2022-12-05T07:41:29;102392.98;;;2.85;69.90
58739;BME280;44512;53.046;18.604;2022-12-05T07:51:55;102396.94;;;2.80;69.96
58739;BME280;44512;53.046;18.604;2022-12-05T08:02:23;102384.75;;;2.76;70.06
58739;BME280;44512;53.046;18.604;2022-12-05T08:12:52;102389.57;;;2.71;70.19
58739;BME280;44512;53.046;18.604;2022-12-05T08:23:20;102379.16;;;2.79;70.27
58739;BME280;44512;53.046;18.604;2022-12-05T08:33:49;102373.81;;;2.79;70.05
58739;BME280;44512;53.046;18.604;2022-12-05T08:44:17;102371.38;;;2.76;70.14
58739;BME280;44512;53.046;18.604;2022-12-05T08:54:46;102361.94;;;2.83;70.17
58739;BME280;44512;53.046;18.604;2022-12-05T09:05:14;102371.90;;;2.81;70.19
58739;BME280;44512;53.046;18.604;2022-12-05T09:15:43;102365.17;;;2.75;70.22
58739;BME280;44512;53.046;18.604;2022-12-05T09:26:15;102362.59;;;2.74;70.23
58739;BME280;44512;53.046;18.604;2022-12-05T09:51:39;102351.24;;;2.83;69.90
58739;BME280;44512;53.046;18.604;2022-12-05T10:22:16;102319.98;;;2.96;69.61
58739;BME280;44512;53.046;18.604;2022-12-05T10:32:27;102316.34;;;2.97;69.51
58739;BME280;44512;53.046;18.604;2022-12-05T10:42:33;102310.59;;;2.91;69.37
58739;BME280;44512;53.046;18.604;2022-12-05T10:52:35;102284.05;;;2.87;69.48
58739;BME280;44512;53.046;18.604;2022-12-05T11:02:37;102284.80;;;2.90;69.64
58739;BME280;44512;53.046;18.604;2022-12-05T11:12:38;102273.75;;;2.94;69.68
58739;BME280;44512;53.046;18.604;2022-12-05T11:22:40;102273.75;;;2.94;69.43
58739;BME280;44512;53.046;18.604;2022-12-05T11:32:41;102264.99;;;2.92;69.55
58739;BME280;44512;53.046;18.604;2022-12-05T11:42:55;102251.91;;;3.00;69.59
58739;BME280;44512;53.046;18.604;2022-12-05T12:54:46;102174.12;;;3.14;69.56
58739;BME280;44512;53.046;18.604;2022-12-05T13:04:48;102158.08;;;3.14;69.62
58739;BME280;44512;53.046;18.604;2022-12-05T13:14:55;102154.90;;;3.09;69.67
58739;BME280;44512;53.046;18.604;2022-12-05T13:24:59;102161.98;;;3.10;69.89
58739;BME280;44512;53.046;18.604;2022-12-05T13:35:09;102153.35;;;3.18;69.83
58739;BME280;44512;53.046;18.604;2022-12-05T13:45:17;102167.93;;;3.14;69.92
58739;BME280;44512;53.046;18.604;2022-12-05T14:05:42;102147.67;;;3.34;69.79
58739;BME280;44512;53.046;18.604;2022-12-05T14:15:44;102124.30;;;3.36;69.70
58739;BME280;44512;53.046;18.604;2022-12-05T14:36:05;102102.44;;;3.42;69.72
58739;BME280;44512;53.046;18.604;2022-12-05T14:46:17;102101.69;;;3.40;69.69
58739;BME280;44512;53.046;18.604;2022-12-05T14:56:25;102111.06;;;3.46;69.81
58739;BME280;44512;53.046;18.604;2022-12-05T15:06:54;102093.93;;;3.48;69.75
58739;BME280;44512;53.046;18.604;2022-12-05T15:17:26;102093.07;;;3.48;69.89
58739;BME280;44512;53.046;18.604;2022-12-05T15:38:23;102078.70;;;3.60;69.76
58739;BME280;44512;53.046;18.604;2022-12-05T15:48:45;102083.83;;;3.63;69.76
58739;BME280;44512;53.046;18.604;2022-12-05T15:59:21;102081.87;;;3.65;69.82
58739;BME280;44512;53.046;18.604;2022-12-05T16:09:44;102082.72;;;3.65;70.01
58739;BME280;44512;53.046;18.604;2022-12-05T16:20:20;102093.69;;;3.62;70.21
58739;BME280;44512;53.046;18.604;2022-12-05T16:30:39;102072.00;;;3.65;70.25
58739;BME280;44512;53.046;18.604;2022-12-05T16:41:08;102064.72;;;3.68;70.34
58739;BME280;44512;53.046;18.604;2022-12-05T16:51:43;102062.27;;;3.64;70.47
58739;BME280;44512;53.046;18.604;2022-12-05T17:02:14;102062.99;;;3.66;70.61
58739;BME280;44512;53.046;18.604;2022-12-05T17:12:33;102062.05;;;3.68;70.71
58739;BME280;44512;53.046;18.604;2022-12-05T17:23:02;102057.41;;;3.70;70.77
58739;BME280;44512;53.046;18.604;2022-12-05T17:33:30;102051.06;;;3.71;70.81
58739;BME280;44512;53.046;18.604;2022-12-05T17:43:58;102040.62;;;3.68;70.98
58739;BME280;44512;53.046;18.604;2022-12-05T17:54:27;102036.21;;;3.66;71.12
58739;BME280;44512;53.046;18.604;2022-12-05T18:04:56;102026.62;;;3.64;71.24
58739;BME280;44512;53.046;18.604;2022-12-05T18:15:24;102018.72;;;3.62;71.41
58739;BME280;44512;53.046;18.604;2022-12-05T18:25:59;102019.56;;;3.63;71.47
58739;BME280;44512;53.046;18.604;2022-12-05T18:36:21;102019.20;;;3.68;71.54
58739;BME280;44512;53.046;18.604;2022-12-05T18:46:50;102005.44;;;3.72;71.50
58739;BME280;44512;53.046;18.604;2022-12-05T18:57:18;101999.68;;;3.77;71.46
58739;BME280;44512;53.046;18.604;2022-12-05T19:07:47;101996.16;;;3.76;71.50
58739;BME280;44512;53.046;18.604;2022-12-05T19:18:16;101995.78;;;3.81;71.51
58739;BME280;44512;53.046;18.604;2022-12-05T19:28:44;101992.98;;;3.82;71.50
58739;BME280;44512;53.046;18.604;2022-12-05T19:39:19;101980.32;;;3.84;71.54
58739;BME280;44512;53.046;18.604;2022-12-05T19:49:40;101992.73;;;3.85;71.67
58739;BME280;44512;53.046;18.604;2022-12-05T20:00:10;101990.19;;;3.84;71.77
58739;BME280;44512;53.046;18.604;2022-12-05T20:10:37;101986.76;;;3.82;71.89
58739;BME280;44512;53.046;18.604;2022-12-05T20:21:09;101987.88;;;3.79;72.07
58739;BME280;44512;53.046;18.604;2022-12-05T20:31:37;101978.49;;;3.85;72.13
58739;BME280;44512;53.046;18.604;2022-12-05T20:42:04;101966.55;;;3.89;72.14
58739;BME280;44512;53.046;18.604;2022-12-05T20:52:31;101968.01;;;3.93;72.15
58739;BME280;44512;53.046;18.604;2022-12-05T21:03:00;101955.32;;;3.95;72.21
58739;BME280;44512;53.046;18.604;2022-12-05T21:13:28;101936.81;;;3.92;72.28
58739;BME280;44512;53.046;18.604;2022-12-05T21:23:59;101942.06;;;3.94;72.44
58739;BME280;44512;53.046;18.604;2022-12-05T21:34:25;101946.30;;;3.96;72.52
58739;BME280;44512;53.046;18.604;2022-12-05T21:44:54;101945.22;;;3.99;72.52
58739;BME280;44512;53.046;18.604;2022-12-05T21:55:23;101939.72;;;4.00;72.62
58739;BME280;44512;53.046;18.604;2022-12-05T22:06:01;101923.64;;;4.00;72.69
58739;BME280;44512;53.046;18.604;2022-12-05T22:16:20;101923.51;;;4.02;72.77
58739;BME280;44512;53.046;18.604;2022-12-05T22:26:48;101911.95;;;4.01;72.89
58739;BME280;44512;53.046;18.604;2022-12-05T22:37:16;101906.45;;;4.03;72.98
58739;BME280;44512;53.046;18.604;2022-12-05T22:47:45;101895.62;;;4.04;72.98
58739;BME280;44512;53.046;18.604;2022-12-05T22:58:14;101881.23;;;4.05;73.06
58739;BME280;44512;53.046;18.604;2022-12-05T23:08:45;101880.12;;;4.08;73.16
58739;BME280;44512;53.046;18.604;2022-12-05T23:19:11;101867.45;;;4.10;73.15
58739;BME280;44512;53.046;18.604;2022-12-05T23:29:39;101853.92;;;4.11;73.13
58739;BME280;44512;53.046;18.604;2022-12-05T23:40:08;101863.54;;;4.14;73.15
58739;BME280;44512;53.046;18.604;2022-12-05T23:50:36;101857.05;;;4.16;73.18
